Time;durP1;ratioP1;P1;durP2;ratioP2;P2;SDS_P1;SDS_P2;PMS_P1;PMS_P2;Temp;Humidity;BMP_temperature;BMP_pressure;BME280_temperature;BME280_humidity;BME280_pressure;Samples;Min_cycle;Max_cycle;Signal;HPM_P1;HPM_P2
2023/01/13 00:01:27;;;;;;;6.82;2.38;;;;;;;7.71;63.05;100035.78;3107556;28;20042;-69
2023/01/13 00:02:59;;;;;;;5.70;2.45;;;;;;;7.65;63.20;100028.19;3119541;28;20136;-70
2023/01/13 00:04:31;;;;;;;4.03;2.25;;;;;;;7.76;62.87;100044.28;3119653;28;20057;-68
2023/01/13 00:06:05;;;;;;;4.90;2.40;;;;;;;7.76;62.88;100044.28;3119999;28;20081;-69
2023/01/13 00:07:38;;;;;;;9.90;2.42;;;;;;;7.57;63.16;100017.19;3119334;28;20107;-69
2023/01/13 00:09:10;;;;;;;5.07;2.95;;;;;;;7.55;63.00;100008.63;3119875;28;20111;-68
2023/01/13 00:10:47;;;;;;;4.82;2.42;;;;;;;7.75;63.00;100040.00;3119633;28;20514;-69
2023/01/13 00:12:18;;;;;;;3.97;2.22;;;;;;;7.73;63.08;100050.41;3119679;28;20077;-70
2023/01/13 00:13:50;;;;;;;3.90;2.35;;;;;;;7.74;62.80;100051.25;3119614;28;20057;-68
2023/01/13 00:15:22;;;;;;;4.85;2.72;;;;;;;7.76;63.07;100054.66;3119307;28;20565;-69
2023/01/13 00:16:53;;;;;;;3.75;2.30;;;;;;;7.74;62.92;100052.09;3119607;28;20111;-69
2023/01/13 00:18:25;;;;;;;4.05;2.20;;;;;;;7.70;63.07;100036.69;3119763;28;20813;-69
2023/01/13 00:19:57;;;;;;;4.60;2.55;;;;;;;7.75;62.71;100045.19;3119494;28;20041;-69
2023/01/13 00:21:30;;;;;;;3.63;2.10;;;;;;;7.71;62.97;100040.97;3119334;28;20239;-69
2023/01/13 00:23:03;;;;;;;4.35;2.50;;;;;;;7.74;62.91;100041.72;3119693;28;20049;-71
2023/01/13 00:24:35;;;;;;;5.35;2.35;;;;;;;7.73;62.65;100039.19;3119283;28;20057;-69
2023/01/13 00:26:09;;;;;;;5.07;2.25;;;;;;;7.73;62.58;100040.03;3119549;28;20102;-70
2023/01/13 00:27:41;;;;;;;4.57;2.65;;;;;;;7.73;62.88;100045.22;3119901;28;20053;-69
2023/01/13 00:29:12;;;;;;;4.07;2.53;;;;;;;7.73;62.61;100039.19;3119465;28;20057;-69
2023/01/13 00:30:43;;;;;;;3.83;2.28;;;;;;;7.71;62.64;100047.00;3119646;28;20045;-68
2023/01/13 00:32:15;;;;;;;4.22;2.42;;;;;;;7.70;62.52;100044.47;3107421;28;20136;-68
2023/01/13 00:33:49;;;;;;;4.72;2.15;;;;;;;7.64;62.53;100029.09;3118867;28;20053;-70
2023/01/13 00:35:21;;;;;;;4.55;2.60;;;;;;;7.70;62.54;100040.13;3120029;28;20172;-69
2023/01/13 00:36:55;;;;;;;5.82;2.35;;;;;;;7.70;62.34;100044.47;3119303;28;20574;-70
2023/01/13 00:38:28;;;;;;;4.03;2.10;;;;;;;7.70;62.62;100044.47;3119180;28;20525;-70
2023/01/13 00:40:00;;;;;;;4.30;2.27;;;;;;;7.68;62.62;100041.06;3119497;28;20061;-69
2023/01/13 00:43:21;;;;;;;5.00;2.60;;;;;;;7.65;62.57;100034.22;3119630;28;20119;-71
2023/01/13 00:43:21;;;;;;;4.35;2.42;;;;;;;7.68;62.33;100044.50;3119962;28;20125;-68
2023/01/13 00:44:53;;;;;;;4.95;2.35;;;;;;;7.65;62.45;100034.22;3119464;28;20053;-69
2023/01/13 00:46:25;;;;;;;3.60;2.05;;;;;;;7.65;62.35;100038.56;3119634;28;20053;-68
2023/01/13 00:47:57;;;;;;;3.20;2.20;;;;;;;7.55;62.51;100019.00;3119453;28;20053;-70
2023/01/13 00:49:28;;;;;;;4.72;2.50;;;;;;;7.70;62.17;100039.28;3119525;28;20046;-70
2023/01/13 00:51:02;;;;;;;3.17;2.33;;;;;;;7.71;62.41;100039.22;3120727;28;20095;-70
2023/01/13 00:52:35;;;;;;;4.25;2.20;;;;;;;7.71;62.10;100039.22;3121967;28;20115;-71
2023/01/13 00:54:07;;;;;;;6.50;2.38;;;;;;;7.51;62.32;100007.84;3121984;28;20103;-70
2023/01/13 00:55:38;;;;;;;7.18;2.65;;;;;;;7.72;62.32;100040.09;3122006;28;20103;-69
2023/01/13 00:57:10;;;;;;;4.03;2.08;;;;;;;7.42;62.29;99987.38;3121920;28;20148;-69
2023/01/13 00:58:43;;;;;;;5.05;2.67;;;;;;;7.72;62.28;100040.94;3121560;28;20111;-70
2023/01/13 01:00:15;;;;;;;6.20;3.05;;;;;;;7.56;62.20;100015.50;3122044;28;20512;-68
2023/01/13 01:01:46;;;;;;;6.70;2.85;;;;;;;7.73;62.26;100034.84;3112043;28;20411;-68
2023/01/13 01:03:18;;;;;;;4.45;2.63;;;;;;;7.74;62.06;100038.28;3121630;28;20053;-69
2023/01/13 01:04:49;;;;;;;4.85;2.25;;;;;;;7.74;62.07;100035.69;3121879;28;20061;-69
2023/01/13 01:06:23;;;;;;;4.78;2.53;;;;;;;7.73;62.19;100034.00;3121696;28;20223;-69
2023/01/13 01:07:57;;;;;;;4.78;2.70;;;;;;;7.74;61.88;100028.75;3125948;28;20041;-69
2023/01/13 01:09:32;;;;;;;4.28;2.60;;;;;;;7.75;62.00;100032.22;3121699;28;20819;-69
2023/01/13 01:11:05;;;;;;;4.63;2.35;;;;;;;7.74;61.98;100033.09;3121693;28;20131;-69
2023/01/13 01:12:37;;;;;;;5.38;2.38;;;;;;;7.74;62.20;100035.69;3121954;28;20057;-69
2023/01/13 01:14:11;;;;;;;4.57;2.45;;;;;;;7.75;62.17;100029.63;3121403;28;20114;-69
2023/01/13 01:15:43;;;;;;;5.00;3.05;;;;;;;7.74;62.03;100033.94;3121418;28;20143;-69
2023/01/13 01:17:15;;;;;;;5.82;2.80;;;;;;;7.74;61.92;100031.34;3121491;28;20125;-69
2023/01/13 01:18:49;;;;;;;7.15;2.55;;;;;;;7.21;62.01;99943.06;3121750;28;20419;-69
2023/01/13 01:20:21;;;;;;;5.82;2.85;;;;;;;7.64;62.05;100019.56;3121391;28;20049;-69
2023/01/13 01:21:53;;;;;;;4.22;2.45;;;;;;;7.71;61.88;100028.84;3121469;28;20454;-70
2023/01/13 01:23:27;;;;;;;4.38;2.60;;;;;;;7.72;61.82;100032.31;3121458;28;20588;-69
2023/01/13 01:24:58;;;;;;;5.13;2.58;;;;;;;7.69;61.83;100028.06;3121768;28;20395;-68
2023/01/13 01:26:31;;;;;;;4.20;2.33;;;;;;;7.69;61.82;100028.06;3122028;28;20041;-70
2023/01/13 01:28:03;;;;;;;6.43;3.72;;;;;;;7.67;62.14;100029.00;3122027;28;20049;-68
2023/01/13 01:29:35;;;;;;;14.00;6.55;;;;;;;7.68;62.05;100035.88;3121627;28;20049;-68
2023/01/13 01:31:08;;;;;;;16.55;7.22;;;;;;;7.70;62.02;100028.91;3121618;28;20041;-69
2023/01/13 01:32:40;;;;;;;6.20;3.50;;;;;;;7.69;62.00;100033.25;3121369;28;20053;-69
2023/01/13 01:34:12;;;;;;;5.85;3.25;;;;;;;7.70;61.88;100027.16;3121163;28;20053;-70
2023/01/13 01:35:44;;;;;;;9.80;5.05;;;;;;;7.66;61.79;100022.97;3121539;28;20076;-70
2023/01/13 01:37:16;;;;;;;5.65;3.42;;;;;;;7.55;61.80;100004.28;3121409;28;20050;-68
2023/01/13 01:38:50;;;;;;;15.52;8.13;;;;;;;7.61;61.72;100019.66;3121314;28;20127;-72
2023/01/13 01:40:22;;;;;;;19.52;9.98;;;;;;;7.56;61.69;100005.97;3121467;28;20084;-69
2023/01/13 01:44:01;;;;;;;4.18;2.58;;;;;;;7.63;61.79;100030.84;3109273;28;20514;-69
2023/01/13 01:45:32;;;;;;;3.72;2.13;;;;;;;7.60;61.91;100024.88;3110403;28;20522;-69
2023/01/13 01:47:04;;;;;;;3.75;2.03;;;;;;;7.14;61.74;99943.31;3115948;28;20053;-70
2023/01/13 01:48:39;;;;;;;6.45;3.40;;;;;;;7.58;61.80;100019.75;3121332;28;20065;-70
2023/01/13 01:50:12;;;;;;;5.28;3.15;;;;;;;7.49;61.95;100010.50;3121396;28;20058;-69
2023/01/13 01:51:48;;;;;;;4.97;2.10;;;;;;;7.59;61.68;100018.00;3121191;28;20053;-70
2023/01/13 01:53:24;;;;;;;4.57;2.20;;;;;;;7.58;61.98;100024.09;3109126;28;20049;-70
2023/01/13 01:55:02;;;;;;;4.70;2.17;;;;;;;7.44;61.78;99990.78;3121439;28;20063;-70
2023/01/13 01:56:35;;;;;;;3.92;2.28;;;;;;;7.58;61.88;100014.56;3109235;28;20050;-70
2023/01/13 01:58:10;;;;;;;;;;;;;;;7.51;62.01;100026.88;3120734;28;20108;-70
2023/01/13 01:59:43;;;;;;;3.83;2.22;;;;;;;7.50;62.08;100022.56;3120872;28;19971;-70
2023/01/13 02:01:15;;;;;;;4.07;2.30;;;;;;;7.51;61.90;100026.00;3115300;28;20116;-70
2023/01/13 02:02:50;;;;;;;4.20;2.22;;;;;;;7.50;62.09;100026.88;3121415;28;20312;-70
2023/01/13 02:04:28;;;;;;;3.88;2.38;;;;;;;7.50;61.95;100035.50;3120886;28;20056;-69
2023/01/13 02:06:00;;;;;;;3.88;2.30;;;;;;;7.48;62.01;100033.84;3120869;28;20057;-69
2023/01/13 02:07:34;;;;;;;4.43;2.38;;;;;;;7.48;62.23;100039.91;3121036;28;20077;-69
2023/01/13 02:09:07;;;;;;;3.55;2.22;;;;;;;7.49;62.24;100035.56;3121311;28;20122;-69
2023/01/13 02:10:43;;;;;;;3.58;2.20;;;;;;;7.46;62.13;100033.91;3121185;28;20085;-68
2023/01/13 02:14:01;;;;;;;5.20;2.08;;;;;;;7.45;62.27;100034.81;3119287;28;20049;-69
2023/01/13 02:15:42;;;;;;;4.72;2.58;;;;;;;7.43;62.07;100023.63;3121014;28;20065;-70
2023/01/13 02:17:30;;;;;;;3.53;2.05;;;;;;;7.36;62.32;100009.13;3117276;28;20049;-69
2023/01/13 02:19:15;;;;;;;5.13;2.42;;;;;;;7.44;62.34;100035.69;3120976;28;20057;-69
2023/01/13 02:21:20;;;;;;;3.70;2.20;;;;;;;7.41;62.32;100025.41;3119566;28;20049;-68
2023/01/13 02:25:51;;;;;;;3.97;2.22;;;;;;;7.17;62.51;99998.47;3121153;28;20045;-68
2023/01/13 02:27:48;;;;;;;5.78;2.42;;;;;;;7.27;62.53;100018.03;3120191;28;20061;-69
2023/01/13 02:31:43;;;;;;;4.20;2.17;;;;;;;7.33;62.47;100031.69;3120609;28;20132;-70
2023/01/13 02:33:39;;;;;;;5.30;2.22;;;;;;;7.34;62.38;100036.00;3120453;28;20545;-70
2023/01/13 02:35:18;;;;;;;4.13;2.25;;;;;;;7.26;62.57;100033.63;3120587;28;20049;-69
2023/01/13 02:36:58;;;;;;;5.03;2.78;;;;;;;7.30;62.67;100040.41;3120972;28;20099;-69
2023/01/13 02:38:33;;;;;;;5.25;3.00;;;;;;;7.29;62.90;100029.19;3120592;28;20184;-70
2023/01/13 02:40:11;;;;;;;3.92;2.22;;;;;;;7.14;62.88;100015.84;3121006;28;20061;-70
2023/01/13 02:45:37;;;;;;;3.58;2.00;;;;;;;7.26;62.99;100043.97;3120623;28;20059;-69
2023/01/13 02:47:15;;;;;;;4.20;2.15;;;;;;;7.26;63.03;100049.16;3120571;28;20053;-69
2023/01/13 02:48:49;;;;;;;4.20;2.22;;;;;;;7.24;63.05;100044.00;3120583;28;20526;-70
2023/01/13 02:50:27;;;;;;;4.57;2.30;;;;;;;7.22;62.96;100042.38;3120299;28;20049;-69
2023/01/13 02:52:05;;;;;;;4.55;2.42;;;;;;;7.25;63.02;100050.06;3120625;28;20560;-69
2023/01/13 02:53:43;;;;;;;5.10;2.63;;;;;;;7.25;63.08;100047.47;3120682;28;20049;-69
2023/01/13 02:55:18;;;;;;;3.75;2.42;;;;;;;7.25;63.26;100050.91;3120319;28;20054;-69
2023/01/13 02:56:50;;;;;;;3.83;2.10;;;;;;;7.14;63.12;100041.72;3120370;28;20103;-68
2023/01/13 02:58:25;;;;;;;3.38;2.10;;;;;;;7.21;63.16;100062.22;3120264;28;20136;-68
2023/01/13 02:59:57;;;;;;;3.95;2.20;;;;;;;7.19;63.45;100052.81;3120231;28;20041;-68
2023/01/13 03:01:30;;;;;;;3.90;2.22;;;;;;;7.01;63.24;100020.47;3111058;28;20053;-68
2023/01/13 03:03:02;;;;;;;5.93;2.33;;;;;;;7.18;63.26;100051.94;3120679;28;20053;-69
2023/01/13 03:04:49;;;;;;;6.65;2.47;;;;;;;7.19;63.42;100055.41;3120278;28;20049;-69
2023/01/13 03:06:39;;;;;;;3.85;2.22;;;;;;;6.75;63.30;99985.81;3120495;28;20053;-68
2023/01/13 03:08:27;;;;;;;4.38;2.25;;;;;;;7.19;63.49;100050.25;3109297;28;20053;-70
2023/01/13 03:10:04;;;;;;;4.53;2.17;;;;;;;7.18;63.47;100045.94;3120371;28;20053;-69
2023/01/13 03:11:45;;;;;;;4.90;2.33;;;;;;;7.20;63.35;100049.34;3120132;28;20148;-70
2023/01/13 03:13:32;;;;;;;4.75;2.28;;;;;;;7.18;63.34;100049.34;3121314;28;20052;-69
2023/01/13 03:15:13;;;;;;;5.35;2.60;;;;;;;7.13;63.51;100045.19;3120034;28;20049;-69
2023/01/13 03:16:59;;;;;;;4.50;2.40;;;;;;;7.15;63.34;100049.44;3120295;28;20049;-70
2023/01/13 03:18:39;;;;;;;5.50;2.40;;;;;;;7.04;63.56;100034.22;3119989;28;20064;-69
2023/01/13 03:20:18;;;;;;;6.50;2.60;;;;;;;7.03;63.41;100034.25;3119598;28;20175;-68
2023/01/13 03:21:56;;;;;;;5.30;2.72;;;;;;;7.12;63.58;100049.53;3120269;28;20071;-69
2023/01/13 03:23:35;;;;;;;4.80;3.05;;;;;;;7.11;63.56;100059.94;3120170;28;20099;-69
2023/01/13 03:25:12;;;;;;;4.28;2.50;;;;;;;7.07;63.57;100054.84;3120399;28;20045;-69
2023/01/13 03:26:48;;;;;;;4.35;2.53;;;;;;;6.64;63.65;99982.63;3119670;28;20089;-68
2023/01/13 03:28:25;;;;;;;3.53;2.38;;;;;;;7.04;63.93;100054.94;3120437;28;20046;-69
2023/01/13 03:30:01;;;;;;;7.35;2.42;;;;;;;6.79;64.02;100015.03;3119765;28;20076;-69
2023/01/13 03:31:38;;;;;;;6.43;2.67;;;;;;;7.01;63.96;100055.00;3120136;28;20049;-68
2023/01/13 03:33:15;;;;;;;4.43;2.67;;;;;;;7.01;64.07;100052.44;3120220;28;20045;-69
2023/01/13 03:34:51;;;;;;;4.80;2.67;;;;;;;6.96;64.15;100045.66;3119664;28;20046;-69
2023/01/13 03:36:25;;;;;;;4.35;2.42;;;;;;;6.35;64.16;99944.56;3119634;28;20137;-68
2023/01/13 03:38:03;;;;;;;4.50;2.38;;;;;;;6.98;63.96;100046.44;3115884;28;20056;-69
2023/01/13 03:39:38;;;;;;;4.03;2.30;;;;;;;6.65;64.07;99996.41;3120036;28;20103;-69
2023/01/13 03:41:15;;;;;;;3.53;2.30;;;;;;;7.00;64.20;100047.28;3119974;28;20042;-69
2023/01/13 03:44:49;;;;;;;4.75;2.20;;;;;;;6.99;63.98;100053.34;3117065;28;20076;-68
2023/01/13 03:46:25;;;;;;;3.67;2.20;;;;;;;7.01;64.10;100060.19;3119906;28;20522;-68
2023/01/13 03:48:02;;;;;;;4.72;2.70;;;;;;;6.47;63.98;99979.63;3119999;28;20096;-69
2023/01/13 03:49:41;;;;;;;4.13;2.50;;;;;;;6.97;64.29;100063.72;3119386;28;20105;-69
2023/01/13 03:51:18;;;;;;;5.22;2.60;;;;;;;6.97;64.19;100066.31;3120161;28;20092;-69
2023/01/13 03:52:53;;;;;;;4.63;2.55;;;;;;;6.98;64.25;100065.44;3119988;28;20055;-68
2023/01/13 03:54:31;;;;;;;4.85;2.65;;;;;;;6.17;64.13;99937.28;3119712;28;20053;-69
2023/01/13 03:56:09;;;;;;;4.20;2.50;;;;;;;6.91;64.20;100055.28;3119569;28;20057;-68
2023/01/13 03:57:46;;;;;;;3.70;2.30;;;;;;;6.97;64.20;100065.47;3119733;28;20767;-69
2023/01/13 03:59:22;;;;;;;4.05;2.30;;;;;;;6.94;64.15;100061.22;3116944;28;20163;-69
2023/01/13 04:00:58;;;;;;;4.43;2.47;;;;;;;6.94;64.30;100068.16;3115290;28;20061;-70
2023/01/13 04:02:41;;;;;;;3.78;1.90;;;;;;;6.92;64.37;100062.16;3116041;28;20052;-68
2023/01/13 04:04:18;;;;;;;3.78;2.38;;;;;;;6.90;64.55;100067.38;3119349;28;20948;-69
2023/01/13 04:05:58;;;;;;;3.47;2.30;;;;;;;6.87;64.41;100077.81;3119871;28;20053;-69
2023/01/13 04:07:40;;;;;;;6.85;2.65;;;;;;;6.88;64.46;100074.31;3119615;28;20050;-68
2023/01/13 04:09:20;;;;;;;4.20;2.70;;;;;;;6.83;64.42;100071.00;3119864;28;20067;-68
2023/01/13 04:10:57;;;;;;;4.20;2.15;;;;;;;6.90;64.42;100074.31;3119216;28;20056;-68
2023/01/13 04:12:59;;;;;;;3.45;2.22;;;;;;;6.90;64.36;100069.97;3119548;28;20053;-69
2023/01/13 04:14:26;;;;;;;3.60;2.30;;;;;;;6.89;64.50;100064.81;3107436;28;20058;-69
2023/01/13 04:16:00;;;;;;;3.70;2.38;;;;;;;6.89;64.52;100076.06;3119224;28;20069;-69
2023/01/13 04:17:31;;;;;;;3.95;2.50;;;;;;;6.90;64.36;100082.06;3119841;28;20049;-68
2023/01/13 04:19:03;;;;;;;5.00;2.45;;;;;;;6.90;64.21;100082.91;3119235;28;20203;-69
2023/01/13 04:20:34;;;;;;;3.55;2.05;;;;;;;6.46;64.38;100003.81;3119453;28;20512;-69
2023/01/13 04:22:07;;;;;;;4.13;2.20;;;;;;;6.91;64.23;100081.19;3120167;28;20095;-69
2023/01/13 04:23:39;;;;;;;4.38;2.25;;;;;;;6.91;64.15;100074.25;3119465;28;20054;-69
2023/01/13 04:25:10;;;;;;;4.40;2.60;;;;;;;6.92;64.29;100085.44;3119639;28;20049;-70
2023/01/13 04:26:42;;;;;;;5.72;2.33;;;;;;;6.93;64.19;100079.41;3122206;28;20053;-70
2023/01/13 04:28:15;;;;;;;5.63;2.83;;;;;;;6.94;64.12;100078.50;3121849;28;20037;-70
2023/01/13 04:29:46;;;;;;;8.05;3.30;;;;;;;6.94;64.32;100084.53;3122088;28;20104;-70
2023/01/13 04:31:18;;;;;;;10.20;3.33;;;;;;;6.96;64.37;100084.50;3122026;28;20142;-69
2023/01/13 04:32:49;;;;;;;5.82;2.40;;;;;;;6.97;64.39;100086.19;3122315;28;20076;-70
2023/01/13 04:34:21;;;;;;;7.15;2.42;;;;;;;6.97;64.25;100081.84;3121963;28;20094;-68
2023/01/13 04:35:53;;;;;;;3.90;2.00;;;;;;;6.99;64.37;100089.59;3121793;28;20049;-70
2023/01/13 04:37:27;;;;;;;9.35;2.63;;;;;;;6.97;64.42;100089.63;3121481;28;20072;-69
2023/01/13 04:38:59;;;;;;;5.25;2.50;;;;;;;6.97;64.37;100087.03;3122157;28;20053;-70
2023/01/13 04:40:30;;;;;;;6.38;2.60;;;;;;;6.98;64.24;100087.88;3121868;28;20057;-69
2023/01/13 04:42:02;;;;;;;5.60;2.50;;;;;;;6.91;64.45;100076.84;3121905;28;20356;-69
2023/01/13 04:43:34;;;;;;;6.25;2.13;;;;;;;6.96;64.46;100090.53;3121796;28;20143;-69
2023/01/13 04:45:06;;;;;;;4.97;2.53;;;;;;;6.96;64.35;100093.13;3122275;28;20111;-69
2023/01/13 04:46:38;;;;;;;6.47;2.13;;;;;;;6.96;64.38;100095.69;3121880;28;20052;-69
2023/01/13 04:48:10;;;;;;;4.93;2.78;;;;;;;6.96;64.67;100095.69;3121327;28;20552;-69
2023/01/13 04:49:42;;;;;;;3.88;2.15;;;;;;;6.97;64.40;100096.53;3121903;28;20057;-69
2023/01/13 04:51:13;;;;;;;5.07;2.60;;;;;;;6.97;64.38;100096.53;3122264;28;20064;-70
2023/01/13 04:52:47;;;;;;;4.10;2.30;;;;;;;7.00;64.44;100096.47;3121966;28;20434;-70
2023/01/13 04:54:19;;;;;;;3.80;2.20;;;;;;;6.98;64.77;100101.69;3109782;28;20046;-69
2023/01/13 04:55:51;;;;;;;4.72;2.72;;;;;;;6.89;64.61;100080.34;3121717;28;20050;-68
2023/01/13 04:57:23;;;;;;;7.13;2.50;;;;;;;6.98;64.44;100091.34;3121932;28;20509;-68
2023/01/13 04:58:55;;;;;;;4.38;2.45;;;;;;;6.94;64.46;100088.84;3121759;28;20095;-68
2023/01/13 05:00:27;;;;;;;4.45;2.30;;;;;;;6.98;64.46;100096.53;3120801;28;20057;-70
2023/01/13 05:01:58;;;;;;;6.47;2.40;;;;;;;6.99;64.48;100093.03;3118901;28;20468;-69
2023/01/13 05:03:30;;;;;;;4.88;2.53;;;;;;;6.99;64.63;100098.22;3120565;28;20133;-71
2023/01/13 05:05:02;;;;;;;7.45;2.63;;;;;;;6.98;64.64;100096.53;3121775;28;20067;-72
2023/01/13 05:06:34;;;;;;;5.57;2.65;;;;;;;6.98;64.71;100099.13;3121373;28;20383;-74
2023/01/13 05:08:08;;;;;;;7.53;2.55;;;;;;;7.00;64.50;100102.50;3121391;28;20549;-72
2023/01/13 05:09:38;;;;;;;;;;;;;;;6.93;64.71;100100.13;3120424;28;20060;-75
2023/01/13 05:18:25;;;;;;;7.50;2.78;;;;;;;6.97;64.84;100110.34;3121536;28;20045;-72
2023/01/13 05:19:56;;;;;;;12.00;4.90;;;;;;;6.99;64.93;100116.34;3123432;28;20482;-73
2023/01/13 05:25:21;;;;;;;8.63;2.92;;;;;;;6.89;64.61;100104.53;3118404;28;20045;-71
2023/01/13 05:26:53;;;;;;;6.93;3.10;;;;;;;6.98;64.94;100113.78;3122230;28;20526;-74
2023/01/13 05:28:25;;;;;;;5.82;2.58;;;;;;;6.99;64.86;100118.09;3122011;28;20415;-71
2023/01/13 05:29:56;;;;;;;8.05;2.80;;;;;;;7.01;64.94;100116.28;3121646;28;20052;-73
2023/01/13 05:31:28;;;;;;;16.67;8.18;;;;;;;7.02;64.89;100110.22;3121163;28;20129;-75
2023/01/13 05:33:00;;;;;;;65.45;30.33;;;;;;;7.04;64.93;100113.66;3121348;28;20045;-71
2023/01/13 05:34:32;;;;;;;13.75;6.57;;;;;;;7.07;64.70;100119.59;3121087;28;20065;-73
2023/01/13 05:36:04;;;;;;;21.30;8.30;;;;;;;7.10;64.82;100125.56;3121078;28;20107;-74
2023/01/13 05:37:35;;;;;;;6.57;3.78;;;;;;;6.76;64.86;100064.28;3121593;28;20053;-68
2023/01/13 05:39:09;;;;;;;7.40;3.65;;;;;;;7.07;64.76;100113.56;3121311;28;20068;-65
2023/01/13 05:44:20;;;;;;;6.63;2.55;;;;;;;6.84;64.55;100078.75;3121152;28;20345;-65
2023/01/13 05:45:56;;;;;;;6.97;2.72;;;;;;;7.13;64.80;100121.19;3121383;28;20052;-62
2023/01/13 05:47:27;;;;;;;5.43;2.88;;;;;;;7.16;64.91;100122.81;3116934;28;20049;-64
2023/01/13 05:49:00;;;;;;;6.15;3.05;;;;;;;7.18;65.20;100127.06;3121112;28;20545;-68
2023/01/13 05:50:31;;;;;;;8.48;2.50;;;;;;;7.14;65.09;100112.50;3121344;28;20064;-71
2023/01/13 05:52:03;;;;;;;6.65;2.95;;;;;;;7.23;64.79;100130.38;3121337;28;20147;-69
2023/01/13 05:53:35;;;;;;;17.40;2.85;;;;;;;6.99;64.58;100087.00;3120858;28;20072;-71
2023/01/13 05:55:09;;;;;;;8.60;2.40;;;;;;;7.21;64.35;100121.81;3121294;28;20045;-69
2023/01/13 05:56:41;;;;;;;7.28;2.45;;;;;;;7.26;64.52;100132.06;3108818;28;20054;-70
2023/01/13 05:58:15;;;;;;;5.30;2.67;;;;;;;7.27;64.42;100136.34;3120458;28;20076;-75
2023/01/13 05:59:47;;;;;;;4.53;2.60;;;;;;;7.27;64.28;100125.97;3121103;28;20049;-79
2023/01/13 06:01:19;;;;;;;5.50;2.00;;;;;;;7.25;64.14;100125.19;3118414;28;20057;-75
2023/01/13 06:02:52;;;;;;;10.70;3.15;;;;;;;7.27;64.00;100139.78;3120750;28;20080;-75
2023/01/13 06:04:24;;;;;;;6.38;2.42;;;;;;;7.28;63.91;100138.91;3121297;28;20057;-69
2023/01/13 06:05:58;;;;;;;5.43;2.53;;;;;;;7.09;63.85;100101.41;3120544;28;20050;-69
2023/01/13 06:07:29;;;;;;;7.60;2.75;;;;;;;7.27;63.94;100137.19;3120559;28;20438;-75
2023/01/13 06:09:00;;;;;;;6.93;3.30;;;;;;;7.27;63.65;100134.59;3120826;28;20041;-73
2023/01/13 06:10:34;;;;;;;3.67;2.28;;;;;;;7.28;63.67;100136.31;3120530;28;20107;-76
2023/01/13 06:12:06;;;;;;;5.97;2.80;;;;;;;7.27;63.90;100138.94;3120946;28;20065;-74
2023/01/13 06:13:38;;;;;;;6.50;2.60;;;;;;;7.13;63.79;100116.00;3120660;28;20492;-68
2023/01/13 06:15:10;;;;;;;6.15;2.72;;;;;;;7.30;63.41;100146.63;3119849;28;20224;-75
2023/01/13 06:16:44;;;;;;;6.13;2.70;;;;;;;7.30;63.35;100141.44;3118908;28;20600;-69
2023/01/13 06:18:16;;;;;;;3.65;2.25;;;;;;;7.29;63.54;100144.94;3120722;28;20077;-71
2023/01/13 06:19:48;;;;;;;5.60;2.80;;;;;;;7.31;63.50;100145.75;3120762;28;20154;-69
2023/01/13 06:21:20;;;;;;;4.88;2.70;;;;;;;7.30;63.42;100149.22;3120182;28;20057;-71
2023/01/13 06:22:53;;;;;;;9.32;2.70;;;;;;;7.31;63.25;100150.94;3120884;28;20107;-70
2023/01/13 06:24:25;;;;;;;4.82;2.80;;;;;;;7.29;63.28;100144.94;3120424;28;20140;-68
2023/01/13 06:26:05;;;;;;;4.38;2.38;;;;;;;7.31;63.37;100156.09;3120644;28;20136;-71
2023/01/13 06:27:38;;;;;;;5.85;2.10;;;;;;;7.28;63.35;100153.59;3120602;28;20050;-72
2023/01/13 06:29:13;;;;;;;10.07;2.90;;;;;;;7.29;63.34;100157.88;3121284;28;20049;-71
2023/01/13 06:30:48;;;;;;;7.97;2.63;;;;;;;7.24;63.34;100146.78;3120734;28;20457;-69
2023/01/13 06:32:24;;;;;;;6.05;2.70;;;;;;;7.24;63.06;100145.03;3120425;28;20056;-71
2023/01/13 06:34:02;;;;;;;8.32;2.80;;;;;;;7.21;63.17;100139.09;3120933;28;20049;-71
2023/01/13 06:35:37;;;;;;;7.28;3.28;;;;;;;6.88;63.18;100089.03;3120994;28;20099;-70
2023/01/13 06:37:12;;;;;;;10.52;3.53;;;;;;;7.22;63.12;100146.00;3120578;28;20049;-70
2023/01/13 06:38:47;;;;;;;13.25;3.95;;;;;;;7.15;63.26;100131.47;3120095;28;20510;-73
2023/01/13 06:40:19;;;;;;;10.50;3.08;;;;;;;7.24;63.31;100147.63;3120428;28;20511;-72
2023/01/13 06:43:43;;;;;;;6.03;3.35;;;;;;;7.28;63.41;100156.19;3120764;28;20054;-70
2023/01/13 06:45:15;;;;;;;10.63;4.18;;;;;;;7.27;63.28;100154.47;3120798;28;20053;-72
2023/01/13 06:46:47;;;;;;;8.63;3.65;;;;;;;6.89;63.29;100091.59;3120160;28;20489;-73
2023/01/13 06:48:22;;;;;;;6.43;3.47;;;;;;;7.25;63.31;100156.28;3119736;28;20068;-74
2023/01/13 06:49:54;;;;;;;7.85;3.72;;;;;;;7.25;63.20;100159.72;3120630;28;20081;-75
2023/01/13 06:51:26;;;;;;;8.63;3.58;;;;;;;6.42;63.11;100020.28;3120258;28;20053;-71
2023/01/13 06:52:58;;;;;;;11.85;4.60;;;;;;;7.23;63.21;100160.63;3120326;28;20049;-71
2023/01/13 06:54:30;;;;;;;9.18;3.70;;;;;;;7.25;63.31;100161.44;3120420;28;20045;-75
2023/01/13 06:56:02;;;;;;;17.65;4.75;;;;;;;7.25;63.16;100164.88;3120090;28;20057;-73
2023/01/13 06:57:35;;;;;;;9.73;4.03;;;;;;;7.28;63.33;100171.72;3120198;28;20050;-73
2023/01/13 06:59:07;;;;;;;8.27;3.97;;;;;;;7.23;63.12;100158.03;3120317;28;20045;-68
2023/01/13 07:00:39;;;;;;;12.93;4.28;;;;;;;7.29;63.21;100170.84;3118018;28;20430;-69
2023/01/13 07:02:11;;;;;;;6.60;3.75;;;;;;;7.24;63.08;100163.16;3113317;28;20104;-67
2023/01/13 07:03:43;;;;;;;13.25;4.25;;;;;;;7.32;63.29;100175.09;3120378;28;20053;-68
2023/01/13 07:05:16;;;;;;;7.78;3.53;;;;;;;7.32;63.15;100181.13;3120571;28;20045;-70
2023/01/13 07:06:48;;;;;;;6.95;3.60;;;;;;;7.26;63.31;100160.56;3120131;28;20570;-67
2023/01/13 07:08:20;;;;;;;10.07;3.83;;;;;;;7.34;63.40;100176.75;3119629;28;20057;-75
2023/01/13 07:09:52;;;;;;;10.80;3.35;;;;;;;7.35;63.29;100182.78;3119756;28;20049;-76
2023/01/13 07:11:24;;;;;;;134.10;57.47;;;;;;;7.37;63.24;100186.19;3119755;28;20387;-70
2023/01/13 07:16:39;;;;;;;21.15;10.50;;;;;;;7.31;63.60;100171.66;3120124;28;20057;-69
2023/01/13 07:18:11;;;;;;;12.73;5.03;;;;;;;7.41;63.44;100187.81;3119921;28;20050;-71
2023/01/13 07:19:43;;;;;;;6.60;3.63;;;;;;;7.45;63.37;100186.81;3123331;28;20623;-77
2023/01/13 07:21:17;;;;;;;5.85;3.38;;;;;;;7.41;63.31;100177.44;3115078;28;20041;-74
2023/01/13 07:22:54;;;;;;;8.45;3.50;;;;;;;7.48;63.29;100190.22;3119840;28;20052;-74
2023/01/13 07:24:26;;;;;;;10.63;3.70;;;;;;;7.42;63.25;100177.38;3119840;28;20057;-74
2023/01/13 07:25:58;;;;;;;7.10;3.75;;;;;;;7.47;63.08;100180.72;3120095;28;20527;-75
2023/01/13 07:27:30;;;;;;;8.50;3.92;;;;;;;7.35;63.25;100167.22;3117699;28;20112;-75
2023/01/13 07:29:03;;;;;;;13.95;5.53;;;;;;;7.45;63.21;100182.50;3118466;28;20434;-70
2023/01/13 07:30:35;;;;;;;8.68;3.85;;;;;;;7.40;63.26;100167.97;3119409;28;20127;-73
2023/01/13 07:32:07;;;;;;;8.38;4.10;;;;;;;7.48;63.37;100185.03;3119564;28;20054;-74
2023/01/13 07:33:39;;;;;;;18.35;4.53;;;;;;;7.44;63.21;100182.53;3120180;28;20120;-74
2023/01/13 07:35:13;;;;;;;9.75;4.05;;;;;;;6.49;63.19;100022.69;3119862;28;20057;-77
2023/01/13 07:36:44;;;;;;;9.63;4.38;;;;;;;7.48;63.25;100187.63;3118688;28;20045;-76
2023/01/13 07:38:16;;;;;;;9.27;4.60;;;;;;;7.43;63.22;100176.50;3117758;28;20095;-74
2023/01/13 07:39:49;;;;;;;13.38;4.10;;;;;;;7.46;63.46;100183.34;3119821;28;20046;-77
2023/01/13 07:45:03;;;;;;;8.45;4.70;;;;;;;7.41;63.38;100172.25;3119562;28;20813;-76
2023/01/13 07:46:34;;;;;;;;;;;;;;;7.45;63.66;100192.88;3120196;28;20053;-76
2023/01/13 07:48:06;;;;;;;15.10;5.22;;;;;;;7.47;63.84;100201.44;3119552;28;19995;-76
2023/01/13 07:49:38;;;;;;;12.90;4.97;;;;;;;7.53;63.62;100190.91;3119438;28;20108;-74
2023/01/13 07:51:11;;;;;;;10.85;4.97;;;;;;;7.57;63.55;100199.44;3119380;28;20053;-74
2023/01/13 07:52:43;;;;;;;8.63;4.75;;;;;;;7.55;63.68;100182.25;3119309;28;20111;-72
2023/01/13 07:54:15;;;;;;;10.85;4.50;;;;;;;7.60;63.51;100193.34;3118860;28;20053;-74
2023/01/13 07:55:47;;;;;;;11.68;4.75;;;;;;;7.65;63.44;100192.31;3117513;28;20085;-73
2023/01/13 07:57:19;;;;;;;16.80;5.68;;;;;;;7.70;63.40;100203.44;3118208;28;20514;-72
2023/01/13 07:58:52;;;;;;;15.18;5.50;;;;;;;7.73;63.47;100202.50;3115811;28;20103;-75
2023/01/13 08:00:25;;;;;;;16.35;6.30;;;;;;;7.76;63.43;100212.78;3118050;28;20084;-77
2023/01/13 08:01:57;;;;;;;12.52;5.47;;;;;;;7.76;63.45;100202.41;3118194;28;20159;-74
2023/01/13 08:03:29;;;;;;;12.32;5.03;;;;;;;7.78;63.55;100203.25;3118102;28;20099;-72